createdAt,value
2017-10-23T00:01:08.883Z,9.90
2017-10-23T00:03:35.089Z,9.70
2017-10-23T00:06:01.663Z,9.50
2017-10-23T00:08:27.893Z,9.60
2017-10-23T00:10:54.124Z,9.70
2017-10-23T00:13:20.343Z,9.70
2017-10-23T00:15:46.581Z,9.60
2017-10-23T00:18:12.770Z,9.80
2017-10-23T00:20:39.271Z,9.80
2017-10-23T00:23:05.474Z,9.80
2017-10-23T00:25:31.674Z,9.90
2017-10-23T00:27:57.883Z,10.00
2017-10-23T00:30:24.084Z,10.20
2017-10-23T00:32:50.306Z,10.30
2017-10-23T00:35:16.513Z,10.30
2017-10-23T00:37:42.781Z,10.20
2017-10-23T00:40:09.372Z,10.20
2017-10-23T00:42:35.608Z,10.30
2017-10-23T00:45:01.825Z,10.10
2017-10-23T00:47:28.028Z,10.10
2017-10-23T00:49:54.293Z,9.90
2017-10-23T00:52:20.564Z,9.60
2017-10-23T00:54:47.160Z,9.40
2017-10-23T00:57:13.554Z,9.40
2017-10-23T00:59:39.761Z,9.20
2017-10-23T01:02:06.434Z,8.90
2017-10-23T01:04:32.672Z,8.90
2017-10-23T01:06:58.944Z,8.70
2017-10-23T01:09:25.556Z,8.70
2017-10-23T01:11:51.746Z,8.70
2017-10-23T01:14:17.992Z,8.80
2017-10-23T01:16:44.203Z,8.80
2017-10-23T01:19:10.461Z,8.70
2017-10-23T01:21:36.704Z,8.70
2017-10-23T01:24:02.953Z,8.70
2017-10-23T01:26:29.557Z,8.80
2017-10-23T01:28:55.768Z,8.80
2017-10-23T01:31:22.037Z,9.00
2017-10-23T01:33:48.261Z,9.00
2017-10-23T01:36:14.487Z,8.90
2017-10-23T01:38:40.751Z,9.00
2017-10-23T01:41:06.985Z,9.10
2017-10-23T01:43:33.239Z,9.00
2017-10-23T01:45:59.478Z,8.80
2017-10-23T01:48:25.725Z,8.80
2017-10-23T01:50:51.939Z,8.90
2017-10-23T01:53:18.140Z,8.80
2017-10-23T01:55:44.354Z,8.90
2017-10-23T01:58:10.589Z,9.00
2017-10-23T02:00:36.853Z,9.20
2017-10-23T02:03:03.076Z,9.10
2017-10-23T02:05:29.327Z,9.10
2017-10-23T02:07:55.548Z,8.90
2017-10-23T02:10:21.777Z,8.80
2017-10-23T02:12:47.997Z,8.90
2017-10-23T02:15:14.237Z,9.20
2017-10-23T02:17:40.442Z,9.30
2017-10-23T02:20:06.664Z,9.30
2017-10-23T02:22:32.872Z,9.30
2017-10-23T02:24:59.073Z,9.30
2017-10-23T02:27:25.671Z,9.30
2017-10-23T02:29:51.867Z,9.30
2017-10-23T02:32:18.095Z,9.40
2017-10-23T02:34:44.317Z,9.30
2017-10-23T02:37:10.589Z,9.30
2017-10-23T02:39:36.780Z,9.20
2017-10-23T02:42:02.982Z,9.20
2017-10-23T02:44:29.220Z,9.30
2017-10-23T02:46:55.423Z,9.10
2017-10-23T02:49:21.670Z,9.10
2017-10-23T02:51:47.880Z,9.10
2017-10-23T02:54:14.461Z,9.10
2017-10-23T02:56:40.671Z,9.10
2017-10-23T02:59:06.873Z,9.10
2017-10-23T03:01:33.464Z,9.30
2017-10-23T03:03:59.672Z,9.30
2017-10-23T03:06:25.936Z,9.10
2017-10-23T03:08:52.184Z,8.90
2017-10-23T03:11:18.804Z,8.80
2017-10-23T03:13:45.086Z,8.80
2017-10-23T03:16:11.605Z,8.70
2017-10-23T03:18:37.841Z,8.80
2017-10-23T03:21:04.052Z,8.80
2017-10-23T03:23:30.329Z,8.90
2017-10-23T03:25:56.561Z,9.00
2017-10-23T03:28:22.825Z,9.10
2017-10-23T03:30:49.412Z,9.00
2017-10-23T03:33:15.652Z,9.00
2017-10-23T03:35:41.878Z,8.90
2017-10-23T03:38:08.145Z,8.90
2017-10-23T03:40:34.803Z,8.80
2017-10-23T03:43:01.042Z,8.80
2017-10-23T03:45:27.293Z,8.80
2017-10-23T03:47:53.533Z,8.70
2017-10-23T03:50:19.773Z,8.90
2017-10-23T03:52:46.017Z,8.90
2017-10-23T03:55:12.273Z,8.80
2017-10-23T03:57:38.908Z,8.70
2017-10-23T04:00:05.538Z,8.60
2017-10-23T04:02:32.149Z,8.50
2017-10-23T04:04:58.401Z,8.50
2017-10-23T04:07:25.047Z,8.60
2017-10-23T04:09:51.680Z,8.70
2017-10-23T04:12:18.323Z,8.60
2017-10-23T04:14:44.954Z,8.60
2017-10-23T04:17:11.584Z,8.80
2017-10-23T04:19:37.866Z,8.80
2017-10-23T04:22:04.102Z,8.70
2017-10-23T04:24:30.385Z,8.70
2017-10-23T04:26:56.999Z,8.80
2017-10-23T04:29:23.228Z,8.80
2017-10-23T04:31:49.446Z,8.70
2017-10-23T04:34:15.710Z,8.90
2017-10-23T04:36:42.317Z,8.60
2017-10-23T04:39:08.578Z,8.60
2017-10-23T04:41:35.203Z,8.70
2017-10-23T04:44:01.817Z,8.60
2017-10-23T04:46:28.337Z,8.60
2017-10-23T04:48:54.558Z,8.60
2017-10-23T04:51:20.778Z,8.70
2017-10-23T04:53:47.015Z,8.70
2017-10-23T04:56:13.241Z,8.70
2017-10-23T04:58:39.478Z,8.80
2017-10-23T05:01:05.702Z,8.70
2017-10-23T05:03:31.952Z,8.70
2017-10-23T05:05:58.207Z,8.90
2017-10-23T05:08:24.793Z,8.90
2017-10-23T05:10:51.033Z,8.90
2017-10-23T05:13:18.068Z,9.00
2017-10-23T05:15:44.321Z,8.90
2017-10-23T05:18:10.566Z,8.90
2017-10-23T05:20:37.193Z,9.00
2017-10-23T05:23:03.434Z,9.00
2017-10-23T05:25:30.080Z,9.10
2017-10-23T05:27:56.679Z,9.00
2017-10-23T05:30:22.922Z,9.00
2017-10-23T05:32:49.162Z,9.10
2017-10-23T05:35:15.762Z,9.10
2017-10-23T05:37:42.050Z,9.10
2017-10-23T05:40:09.143Z,9.10
2017-10-23T05:42:35.441Z,9.10
2017-10-23T05:45:01.652Z,8.90
2017-10-23T05:47:27.914Z,9.00
2017-10-23T05:49:54.163Z,9.10
2017-10-23T05:52:20.402Z,9.20
2017-10-23T05:54:46.643Z,9.30
2017-10-23T05:57:13.254Z,9.30
2017-10-23T05:59:39.494Z,9.30
2017-10-23T06:02:05.742Z,9.30
2017-10-23T06:04:32.369Z,9.50
2017-10-23T06:06:58.594Z,9.50
2017-10-23T06:09:24.870Z,9.50
2017-10-23T06:11:51.100Z,9.50
2017-10-23T06:14:17.363Z,9.40
2017-10-23T06:16:43.624Z,9.40
2017-10-23T06:19:10.259Z,9.30
2017-10-23T06:21:36.867Z,9.30
2017-10-23T06:24:03.149Z,9.40
2017-10-23T06:26:29.667Z,9.40
2017-10-23T06:28:56.301Z,9.30
2017-10-23T06:31:22.941Z,9.40
2017-10-23T06:33:49.568Z,9.10
2017-10-23T06:36:16.209Z,9.20
2017-10-23T06:38:42.866Z,9.30
2017-10-23T06:41:09.132Z,9.20
2017-10-23T06:43:35.372Z,9.30
2017-10-23T06:46:01.617Z,9.30
2017-10-23T06:48:27.848Z,9.30
2017-10-23T06:50:54.780Z,9.20
2017-10-23T06:53:21.090Z,9.20
2017-10-23T06:55:47.361Z,9.30
2017-10-23T06:58:14.022Z,9.40
2017-10-23T07:00:40.286Z,9.40
2017-10-23T07:03:06.597Z,9.50
2017-10-23T07:05:32.852Z,9.50
2017-10-23T07:07:59.106Z,9.60
2017-10-23T07:10:25.758Z,9.90
2017-10-23T07:12:52.375Z,9.70
2017-10-23T07:15:18.640Z,9.80
2017-10-23T07:17:44.876Z,9.60
2017-10-23T07:20:11.174Z,9.50
2017-10-23T07:22:37.803Z,9.40
2017-10-23T07:25:04.045Z,9.40
2017-10-23T07:27:30.676Z,9.20
2017-10-23T07:29:56.892Z,9.30
2017-10-23T07:32:23.137Z,9.40
2017-10-23T07:34:49.727Z,9.70
2017-10-23T07:37:16.235Z,9.70
2017-10-23T07:39:42.501Z,9.80
2017-10-23T07:42:08.727Z,9.90
2017-10-23T07:44:34.991Z,10.00
2017-10-23T07:47:01.597Z,10.10
2017-10-23T07:49:27.852Z,10.10
2017-10-23T07:51:54.074Z,10.20
2017-10-23T07:54:20.372Z,10.30
2017-10-23T07:56:46.644Z,10.60
2017-10-23T07:59:13.252Z,10.60
2017-10-23T08:01:39.529Z,10.60
2017-10-23T08:04:05.732Z,10.80
2017-10-23T08:06:31.940Z,10.90
2017-10-23T08:08:58.132Z,10.60
2017-10-23T08:11:24.358Z,10.70
2017-10-23T08:13:50.540Z,10.80
2017-10-23T08:16:17.016Z,10.60
2017-10-23T08:18:43.213Z,10.40
2017-10-23T08:21:09.805Z,10.40
2017-10-23T08:23:36.030Z,10.40
2017-10-23T08:26:02.278Z,10.60
2017-10-23T08:28:28.553Z,10.50
2017-10-23T08:30:54.788Z,10.50
2017-10-23T08:33:21.012Z,10.70
2017-10-23T08:35:47.230Z,10.70
2017-10-23T08:38:13.793Z,10.80
2017-10-23T08:40:40.033Z,10.80
2017-10-23T08:43:06.241Z,11.00
2017-10-23T08:45:32.487Z,11.50
2017-10-23T08:47:58.700Z,11.80
2017-10-23T08:50:25.239Z,12.00
2017-10-23T08:52:51.473Z,12.00
2017-10-23T08:55:17.758Z,12.10
2017-10-23T08:57:44.379Z,11.80
2017-10-23T09:00:10.623Z,11.80
2017-10-23T09:02:37.240Z,11.30
2017-10-23T09:05:03.556Z,11.30
2017-10-23T09:07:29.817Z,11.30
2017-10-23T09:09:56.443Z,11.70
2017-10-23T09:12:22.924Z,11.70
2017-10-23T09:14:49.166Z,11.80
2017-10-23T09:17:15.379Z,11.80
2017-10-23T09:19:41.618Z,12.00
2017-10-23T09:22:07.855Z,12.10
2017-10-23T09:24:34.091Z,12.20
2017-10-23T09:27:00.324Z,12.40
2017-10-23T09:29:26.566Z,12.50
2017-10-23T09:31:52.790Z,12.40
2017-10-23T09:34:19.305Z,12.20
2017-10-23T09:36:45.568Z,12.00
2017-10-23T09:39:11.842Z,12.30
2017-10-23T09:41:38.074Z,12.10
2017-10-23T09:44:04.287Z,12.40
2017-10-23T09:46:30.552Z,12.70
2017-10-23T09:48:56.755Z,13.00
2017-10-23T09:51:22.949Z,13.00
2017-10-23T09:53:49.558Z,12.80
2017-10-23T09:56:15.765Z,12.80
2017-10-23T09:58:42.005Z,12.80
2017-10-23T10:01:08.237Z,12.50
2017-10-23T10:03:34.537Z,12.30
2017-10-23T10:06:00.758Z,12.40
2017-10-23T10:08:26.990Z,12.20
2017-10-23T10:10:53.222Z,12.00
2017-10-23T10:13:19.447Z,11.90
2017-10-23T10:15:45.691Z,11.90
2017-10-23T10:18:11.900Z,11.80
2017-10-23T10:20:38.174Z,11.90
2017-10-23T10:23:04.396Z,12.00
2017-10-23T10:25:30.638Z,11.90
2017-10-23T10:27:56.881Z,12.20
2017-10-23T10:30:23.756Z,11.80
2017-10-23T10:32:50.004Z,11.70
2017-10-23T10:35:16.200Z,11.70
2017-10-23T10:37:42.434Z,11.70
2017-10-23T10:40:08.694Z,11.70
2017-10-23T10:42:41.807Z,11.90
2017-10-23T10:45:08.036Z,12.40
2017-10-23T10:47:34.257Z,12.70
2017-10-23T10:50:00.458Z,12.90
2017-10-23T10:52:26.643Z,13.10
2017-10-23T10:54:52.880Z,13.30
2017-10-23T10:57:19.127Z,13.70
2017-10-23T10:59:45.350Z,13.80
2017-10-23T11:02:11.556Z,13.50
2017-10-23T11:04:38.182Z,12.80
2017-10-23T11:07:04.789Z,12.50
2017-10-23T11:09:31.063Z,12.50
2017-10-23T11:11:58.116Z,12.00
2017-10-23T11:14:24.351Z,11.70
2017-10-23T11:16:50.562Z,11.60
2017-10-23T11:19:17.187Z,11.80
2017-10-23T11:21:43.836Z,12.00
2017-10-23T11:24:10.456Z,12.00
2017-10-23T11:26:37.148Z,12.30
2017-10-23T11:29:03.339Z,12.30
2017-10-23T11:31:29.594Z,12.70
2017-10-23T11:33:55.802Z,12.80
2017-10-23T11:36:22.037Z,13.10
2017-10-23T11:38:48.271Z,13.30
2017-10-23T11:41:14.509Z,13.10
2017-10-23T11:43:40.757Z,13.30
2017-10-23T11:46:06.986Z,13.40
2017-10-23T11:48:33.203Z,13.20
2017-10-23T11:50:59.435Z,13.40
2017-10-23T11:53:25.698Z,13.80
2017-10-23T11:55:51.903Z,13.90
2017-10-23T11:58:18.134Z,14.00
2017-10-23T12:00:44.357Z,14.00
2017-10-23T12:03:10.576Z,14.00
2017-10-23T12:05:36.804Z,13.60
2017-10-23T12:08:02.993Z,13.20
2017-10-23T12:10:29.233Z,13.10
2017-10-23T12:12:55.435Z,12.90
2017-10-23T12:15:22.120Z,12.20
2017-10-23T12:17:48.394Z,12.20
2017-10-23T12:22:47.480Z,11.30
2017-10-23T12:25:13.738Z,11.20
2017-10-23T12:27:40.016Z,11.20
2017-10-23T12:30:06.275Z,11.20
2017-10-23T12:32:32.543Z,11.10
2017-10-23T12:34:58.834Z,11.30
2017-10-23T12:37:25.121Z,11.40
2017-10-23T12:39:51.408Z,11.40
2017-10-23T12:42:18.037Z,11.50
2017-10-23T12:44:44.359Z,11.50
2017-10-23T12:47:10.600Z,11.70
2017-10-23T12:49:36.816Z,11.90
2017-10-23T12:54:37.665Z,11.70
2017-10-23T12:57:03.900Z,11.60
2017-10-23T12:59:30.101Z,11.60
2017-10-23T13:01:58.132Z,11.60
2017-10-23T13:04:24.332Z,11.60
2017-10-23T13:06:50.611Z,11.50
2017-10-23T13:09:16.888Z,11.40
2017-10-23T13:11:43.109Z,11.30
2017-10-23T13:14:10.394Z,11.30
2017-10-23T13:16:36.642Z,11.30
2017-10-23T13:19:03.537Z,11.50
2017-10-23T13:21:29.837Z,11.50
2017-10-23T13:23:56.059Z,11.50
2017-10-23T13:26:22.348Z,11.70
2017-10-23T13:28:48.636Z,11.80
2017-10-23T13:31:14.888Z,12.00
2017-10-23T13:33:41.178Z,12.10
2017-10-23T13:36:07.413Z,12.10
2017-10-23T13:38:33.630Z,12.30
2017-10-23T13:40:59.926Z,12.60
2017-10-23T13:43:26.144Z,12.70
2017-10-23T13:45:52.395Z,12.70
2017-10-23T13:48:18.670Z,12.80
2017-10-23T13:50:44.925Z,12.60
2017-10-23T13:53:11.546Z,14.00
2017-10-23T13:55:37.774Z,14.00
2017-10-23T13:58:04.047Z,14.80
2017-10-23T14:00:30.346Z,15.10
2017-10-23T14:02:56.622Z,16.20
2017-10-23T14:05:22.869Z,17.70
2017-10-23T14:07:49.120Z,18.10
2017-10-23T14:10:15.369Z,18.20
2017-10-23T14:12:41.962Z,16.60
2017-10-23T14:15:08.278Z,16.60
2017-10-23T14:17:34.548Z,15.40
2017-10-23T14:20:00.820Z,14.60
2017-10-23T14:22:27.126Z,13.80
2017-10-23T14:24:53.763Z,13.00
2017-10-23T14:27:20.390Z,12.80
2017-10-23T14:29:47.082Z,12.70
2017-10-23T14:32:13.346Z,12.70
2017-10-23T14:34:39.626Z,12.60
2017-10-23T14:37:05.903Z,12.50
2017-10-23T14:39:32.204Z,12.50
2017-10-23T14:41:58.835Z,12.50
2017-10-23T14:44:25.163Z,12.50
2017-10-23T14:46:51.758Z,12.50
2017-10-23T14:49:18.401Z,12.60
2017-10-23T14:51:45.030Z,12.50
2017-10-23T14:54:11.318Z,12.50
2017-10-23T14:56:37.604Z,12.30
2017-10-23T14:59:03.919Z,12.50
2017-10-23T15:01:30.661Z,12.40
2017-10-23T15:03:57.331Z,12.30
2017-10-23T15:06:23.568Z,12.30
2017-10-23T15:08:49.870Z,12.30
2017-10-23T15:11:16.121Z,12.10
2017-10-23T15:13:42.382Z,12.10
2017-10-23T15:16:08.676Z,12.10
2017-10-23T15:18:34.953Z,12.20
2017-10-23T15:21:03.110Z,12.20
2017-10-23T15:23:29.343Z,12.20
2017-10-23T15:25:55.611Z,12.20
2017-10-23T15:28:22.205Z,11.90
2017-10-23T15:30:48.455Z,11.90
2017-10-23T15:33:15.678Z,11.90
2017-10-23T15:35:42.856Z,11.80
2017-10-23T15:38:09.102Z,11.50
2017-10-23T15:40:35.364Z,11.50
2017-10-23T15:43:01.638Z,11.50
2017-10-23T15:45:27.905Z,11.50
2017-10-23T15:47:54.148Z,11.50
2017-10-23T15:50:21.312Z,11.50
2017-10-23T15:52:47.524Z,11.60
2017-10-23T15:55:13.775Z,11.60
2017-10-23T15:57:41.060Z,11.70
2017-10-23T16:00:07.350Z,11.80
2017-10-23T16:02:34.345Z,11.70
2017-10-23T16:05:00.936Z,11.70
2017-10-23T16:07:27.177Z,11.70
2017-10-23T16:09:53.408Z,11.70
2017-10-23T16:12:19.685Z,11.60
2017-10-23T16:14:45.925Z,11.40
2017-10-23T16:17:12.217Z,11.30
2017-10-23T16:19:38.513Z,11.30
2017-10-23T16:22:04.781Z,11.30
2017-10-23T16:24:31.462Z,11.20
2017-10-23T16:26:57.720Z,11.20
2017-10-23T16:29:24.029Z,11.10
2017-10-23T16:31:50.342Z,11.20
2017-10-23T16:34:16.581Z,11.20
2017-10-23T16:36:43.629Z,11.20
2017-10-23T16:39:09.995Z,11.20
2017-10-23T16:41:36.322Z,11.10
2017-10-23T16:44:03.854Z,11.00
2017-10-23T16:46:30.131Z,11.20
2017-10-23T16:48:56.777Z,11.40
2017-10-23T16:51:23.037Z,11.30
2017-10-23T16:53:49.277Z,11.40
2017-10-23T16:56:15.535Z,11.40
2017-10-23T16:58:41.826Z,11.30
2017-10-23T17:01:08.098Z,11.30
2017-10-23T17:03:34.345Z,11.30
2017-10-23T17:06:00.929Z,11.30
2017-10-23T17:08:27.201Z,11.30
2017-10-23T17:10:53.442Z,11.20
2017-10-23T17:13:19.729Z,11.30
2017-10-23T17:15:46.036Z,11.30
2017-10-23T17:18:12.319Z,11.10
2017-10-23T17:20:38.539Z,11.00
2017-10-23T17:23:05.341Z,10.90
2017-10-23T17:25:31.642Z,10.90
2017-10-23T17:27:57.895Z,10.80
2017-10-23T17:30:24.672Z,10.90
2017-10-23T17:32:50.918Z,10.90
2017-10-23T17:35:17.574Z,11.00
2017-10-23T17:37:44.277Z,11.00
2017-10-23T17:40:10.805Z,11.00
2017-10-23T17:42:37.058Z,11.20
2017-10-23T17:45:03.990Z,10.90
2017-10-23T17:47:30.255Z,11.00
2017-10-23T17:49:56.524Z,11.00
2017-10-23T17:52:22.811Z,10.90
2017-10-23T17:54:49.454Z,10.90
2017-10-23T17:57:16.669Z,10.90
2017-10-23T17:59:43.400Z,10.90
2017-10-23T18:02:10.944Z,10.90
2017-10-23T18:04:37.339Z,10.90
2017-10-23T18:07:04.496Z,11.00
2017-10-23T18:09:30.888Z,11.00
2017-10-23T18:11:57.338Z,11.20
2017-10-23T18:14:24.030Z,11.20
2017-10-23T18:16:50.962Z,11.30
2017-10-23T18:19:17.314Z,11.30
2017-10-23T18:21:44.011Z,11.30
2017-10-23T18:24:10.465Z,11.30
2017-10-23T18:26:36.783Z,11.10
2017-10-23T18:29:03.122Z,11.00
2017-10-23T18:31:29.458Z,11.10
2017-10-23T18:33:55.745Z,11.20
2017-10-23T18:36:22.138Z,11.20
2017-10-23T18:38:48.493Z,11.10
2017-10-23T18:41:14.906Z,10.80
2017-10-23T18:43:42.414Z,10.60
2017-10-23T18:46:09.156Z,10.70
2017-10-23T18:48:35.616Z,10.80
2017-10-23T18:51:02.657Z,10.80
2017-10-23T18:53:28.965Z,10.80
2017-10-23T18:55:55.325Z,10.80
2017-10-23T18:58:21.676Z,10.80
2017-10-23T19:00:48.532Z,10.70
2017-10-23T19:03:15.337Z,10.70
2017-10-23T19:05:41.819Z,10.70
2017-10-23T19:08:08.628Z,10.40
2017-10-23T19:10:34.955Z,10.40
2017-10-23T19:13:01.877Z,10.40
2017-10-23T19:15:28.267Z,10.50
2017-10-23T19:17:54.711Z,10.50
2017-10-23T19:20:21.165Z,10.60
2017-10-23T19:22:47.977Z,10.40
2017-10-23T19:25:14.399Z,10.40
2017-10-23T19:27:41.937Z,10.50
2017-10-23T19:30:09.922Z,10.40
2017-10-23T19:32:36.329Z,10.30
2017-10-23T19:35:03.343Z,10.40
2017-10-23T19:37:29.748Z,10.40
2017-10-23T19:39:56.572Z,10.30
2017-10-23T19:42:23.620Z,10.30
2017-10-23T19:44:50.318Z,10.40
2017-10-23T19:47:17.263Z,10.40
2017-10-23T19:49:43.756Z,10.30
2017-10-23T19:52:10.133Z,10.20
2017-10-23T19:54:36.751Z,10.00
2017-10-23T19:57:03.111Z,10.10
2017-10-23T19:59:29.830Z,10.00
2017-10-23T20:01:56.115Z,10.00
2017-10-23T20:04:22.478Z,9.90
2017-10-23T20:06:49.164Z,10.00
2017-10-23T20:09:15.546Z,10.00
2017-10-23T20:11:41.819Z,10.00
2017-10-23T20:14:08.594Z,9.90
2017-10-23T20:16:34.891Z,9.90
2017-10-23T20:19:02.218Z,10.10
2017-10-23T20:21:29.484Z,10.10
2017-10-23T20:23:55.815Z,10.00
2017-10-23T20:26:22.142Z,10.00
2017-10-23T20:28:50.078Z,10.00
2017-10-23T20:31:18.235Z,10.10
2017-10-23T20:33:45.869Z,10.10
2017-10-23T20:36:12.911Z,10.10
2017-10-23T20:38:39.233Z,10.20
2017-10-23T20:41:05.535Z,10.20
2017-10-23T20:43:32.385Z,10.30
2017-10-23T20:45:59.250Z,10.10
2017-10-23T20:48:26.120Z,10.10
2017-10-23T20:50:52.453Z,10.20
2017-10-23T20:53:18.809Z,10.20
2017-10-23T20:55:46.672Z,10.10
2017-10-23T20:58:12.986Z,10.00
2017-10-23T21:00:39.290Z,10.10
2017-10-23T21:03:06.026Z,10.20
2017-10-23T21:05:32.344Z,10.20
2017-10-23T21:07:59.440Z,10.20
2017-10-23T21:10:25.738Z,10.20
2017-10-23T21:12:52.036Z,10.10
2017-10-23T21:15:18.811Z,9.90
2017-10-23T21:17:45.092Z,10.10
2017-10-23T21:20:11.733Z,10.10
2017-10-23T21:22:38.374Z,10.20
2017-10-23T21:25:05.042Z,10.30
2017-10-23T21:27:31.305Z,10.30
2017-10-23T21:29:57.594Z,10.40
2017-10-23T21:32:23.907Z,10.30
2017-10-23T21:34:50.200Z,10.30
2017-10-23T21:37:16.579Z,10.30
2017-10-23T21:39:42.949Z,10.30
2017-10-23T21:42:09.226Z,10.40
2017-10-23T21:44:35.476Z,10.30
2017-10-23T21:47:08.461Z,10.20
2017-10-23T21:49:34.722Z,10.20
2017-10-23T21:52:01.324Z,10.20
2017-10-23T21:54:27.796Z,10.20
2017-10-23T21:56:54.402Z,10.20
2017-10-23T21:59:20.995Z,10.20
2017-10-23T22:01:47.278Z,10.00
2017-10-23T22:04:14.475Z,10.10
2017-10-23T22:06:41.160Z,10.10
2017-10-23T22:09:07.427Z,10.10
2017-10-23T22:11:33.760Z,10.20
2017-10-23T22:14:00.007Z,10.30
2017-10-23T22:16:26.286Z,10.40
2017-10-23T22:18:52.561Z,10.40
2017-10-23T22:21:18.841Z,10.50
2017-10-23T22:23:45.493Z,10.50
2017-10-23T22:26:12.198Z,10.50
2017-10-23T22:28:38.477Z,10.50
2017-10-23T22:31:04.718Z,10.30
2017-10-23T22:33:32.097Z,10.30
2017-10-23T22:35:58.345Z,10.30
2017-10-23T22:38:24.589Z,10.30
2017-10-23T22:40:50.908Z,10.10
2017-10-23T22:43:17.205Z,10.20
2017-10-23T22:45:43.906Z,10.00
2017-10-23T22:48:10.219Z,10.00
2017-10-23T22:50:36.501Z,9.80
2017-10-23T22:53:02.782Z,9.80
2017-10-23T22:55:30.148Z,9.90
2017-10-23T22:57:56.432Z,10.00
2017-10-23T23:00:23.149Z,10.10
2017-10-23T23:02:49.461Z,10.10
2017-10-23T23:05:16.080Z,10.30
2017-10-23T23:07:42.553Z,10.30
2017-10-23T23:10:08.879Z,10.20
2017-10-23T23:12:35.160Z,10.10
2017-10-23T23:15:01.419Z,10.00
2017-10-23T23:17:28.073Z,10.00
2017-10-23T23:19:54.692Z,9.90
2017-10-23T23:22:20.941Z,9.90
2017-10-23T23:24:47.586Z,10.00
2017-10-23T23:27:14.262Z,10.10
2017-10-23T23:29:40.523Z,10.10
2017-10-23T23:32:06.797Z,10.00
2017-10-23T23:34:33.462Z,10.20
2017-10-23T23:36:59.780Z,10.20
2017-10-23T23:39:26.452Z,10.10
2017-10-23T23:41:52.718Z,10.10
2017-10-23T23:44:18.994Z,10.20
2017-10-23T23:46:45.261Z,10.30
2017-10-23T23:49:11.559Z,10.40
2017-10-23T23:51:38.198Z,10.40
2017-10-23T23:54:04.453Z,10.30
2017-10-23T23:56:30.730Z,10.30
2017-10-23T23:58:56.986Z,10.40
